sensor_id;sensor_type;location;lat;lon;timestamp;pressure;altitude;pressure_sealevel;temperature;humidity
37878;BME280;23715;53.652;8.516;2023-08-08T00:04:26;101120.05;;;15.40;100.00
37878;BME280;23715;53.652;8.516;2023-08-08T00:09:26;101152.09;;;15.09;100.00
37878;BME280;23715;53.652;8.516;2023-08-08T00:14:26;101164.46;;;14.94;100.00
37878;BME280;23715;53.652;8.516;2023-08-08T00:19:27;101183.23;;;14.91;100.00
37878;BME280;23715;53.652;8.516;2023-08-08T00:24:27;101178.45;;;14.38;100.00
37878;BME280;23715;53.652;8.516;2023-08-08T00:29:27;101183.88;;;14.61;100.00
37878;BME280;23715;53.652;8.516;2023-08-08T00:34:27;101160.44;;;14.56;100.00
37878;BME280;23715;53.652;8.516;2023-08-08T00:39:28;101139.80;;;14.83;100.00
37878;BME280;23715;53.652;8.516;2023-08-08T00:44:28;101125.16;;;14.76;100.00
37878;BME280;23715;53.652;8.516;2023-08-08T00:49:28;101117.88;;;15.26;100.00
37878;BME280;23715;53.652;8.516;2023-08-08T00:54:29;101104.05;;;15.73;100.00
37878;BME280;23715;53.652;8.516;2023-08-08T00:59:30;101080.75;;;15.89;100.00
37878;BME280;23715;53.652;8.516;2023-08-08T01:04:30;101060.25;;;15.68;100.00
37878;BME280;23715;53.652;8.516;2023-08-08T01:09:46;101073.48;;;15.67;100.00
37878;BME280;23715;53.652;8.516;2023-08-08T01:14:43;101072.97;;;15.90;100.00
37878;BME280;23715;53.652;8.516;2023-08-08T01:19:44;101050.69;;;15.30;100.00
37878;BME280;23715;53.652;8.516;2023-08-08T01:24:45;101079.52;;;15.61;100.00
37878;BME280;23715;53.652;8.516;2023-08-08T01:29:46;101070.77;;;15.67;100.00
37878;BME280;23715;53.652;8.516;2023-08-08T01:34:46;101061.06;;;15.38;100.00
37878;BME280;23715;53.652;8.516;2023-08-08T01:39:48;101076.79;;;15.13;100.00
37878;BME280;23715;53.652;8.516;2023-08-08T01:44:49;101079.16;;;15.34;100.00
37878;BME280;23715;53.652;8.516;2023-08-08T01:49:49;101068.20;;;15.39;100.00
37878;BME280;23715;53.652;8.516;2023-08-08T01:54:52;101055.38;;;15.50;100.00
37878;BME280;23715;53.652;8.516;2023-08-08T01:59:54;101046.52;;;15.39;100.00
37878;BME280;23715;53.652;8.516;2023-08-08T02:04:55;101050.81;;;15.24;100.00
37878;BME280;23715;53.652;8.516;2023-08-08T02:09:55;101051.40;;;15.36;100.00
37878;BME280;23715;53.652;8.516;2023-08-08T02:14:59;101042.09;;;15.38;100.00
37878;BME280;23715;53.652;8.516;2023-08-08T02:19:59;101020.08;;;15.37;100.00
37878;BME280;23715;53.652;8.516;2023-08-08T02:24:59;101018.32;;;15.28;100.00
37878;BME280;23715;53.652;8.516;2023-08-08T02:30:00;101006.52;;;15.33;100.00
37878;BME280;23715;53.652;8.516;2023-08-08T02:35:00;100994.11;;;15.57;100.00
37878;BME280;23715;53.652;8.516;2023-08-08T02:40:01;100993.27;;;15.56;100.00
37878;BME280;23715;53.652;8.516;2023-08-08T02:45:02;100987.33;;;15.57;100.00
37878;BME280;23715;53.652;8.516;2023-08-08T02:50:02;100985.90;;;15.71;100.00
37878;BME280;23715;53.652;8.516;2023-08-08T02:55:02;100982.31;;;15.14;100.00
37878;BME280;23715;53.652;8.516;2023-08-08T03:00:03;100977.98;;;15.25;100.00
37878;BME280;23715;53.652;8.516;2023-08-08T03:05:06;100963.95;;;15.52;100.00
37878;BME280;23715;53.652;8.516;2023-08-08T03:10:06;100951.66;;;15.35;100.00
37878;BME280;23715;53.652;8.516;2023-08-08T03:15:09;100942.73;;;15.47;100.00
37878;BME280;23715;53.652;8.516;2023-08-08T03:20:11;100937.17;;;15.53;100.00
37878;BME280;23715;53.652;8.516;2023-08-08T03:25:11;100936.31;;;15.78;100.00
37878;BME280;23715;53.652;8.516;2023-08-08T03:30:13;100938.37;;;15.54;100.00
37878;BME280;23715;53.652;8.516;2023-08-08T03:35:14;100937.40;;;15.64;100.00
37878;BME280;23715;53.652;8.516;2023-08-08T03:40:16;100922.78;;;15.95;100.00
37878;BME280;23715;53.652;8.516;2023-08-08T03:45:17;100915.73;;;15.72;100.00
37878;BME280;23715;53.652;8.516;2023-08-08T03:50:17;100912.83;;;16.16;100.00
37878;BME280;23715;53.652;8.516;2023-08-08T03:55:17;100916.66;;;15.80;100.00
37878;BME280;23715;53.652;8.516;2023-08-08T04:00:17;100914.84;;;15.97;100.00
37878;BME280;23715;53.652;8.516;2023-08-08T04:05:17;100913.38;;;16.32;100.00
37878;BME280;23715;53.652;8.516;2023-08-08T04:10:18;100894.55;;;16.34;100.00
37878;BME280;23715;53.652;8.516;2023-08-08T04:15:18;100878.94;;;16.28;100.00
37878;BME280;23715;53.652;8.516;2023-08-08T04:20:18;100881.78;;;15.94;100.00
37878;BME280;23715;53.652;8.516;2023-08-08T04:25:18;100883.81;;;15.96;100.00
37878;BME280;23715;53.652;8.516;2023-08-08T04:30:20;100884.02;;;16.11;100.00
37878;BME280;23715;53.652;8.516;2023-08-08T04:35:20;100889.71;;;15.87;100.00
37878;BME280;23715;53.652;8.516;2023-08-08T04:40:20;100882.45;;;16.00;100.00
37878;BME280;23715;53.652;8.516;2023-08-08T04:45:20;100893.15;;;16.06;100.00
37878;BME280;23715;53.652;8.516;2023-08-08T04:50:20;100887.27;;;15.72;100.00
37878;BME280;23715;53.652;8.516;2023-08-08T04:55:20;100868.84;;;15.75;100.00
37878;BME280;23715;53.652;8.516;2023-08-08T05:00:25;100868.43;;;15.62;100.00
37878;BME280;23715;53.652;8.516;2023-08-08T05:05:25;100876.66;;;15.78;100.00
37878;BME280;23715;53.652;8.516;2023-08-08T05:10:26;100878.91;;;15.57;100.00
37878;BME280;23715;53.652;8.516;2023-08-08T05:15:26;100891.22;;;15.81;100.00
37878;BME280;23715;53.652;8.516;2023-08-08T05:20:26;100880.27;;;16.08;100.00
37878;BME280;23715;53.652;8.516;2023-08-08T05:25:26;100882.46;;;16.12;100.00
37878;BME280;23715;53.652;8.516;2023-08-08T05:30:27;100882.77;;;15.80;100.00
37878;BME280;23715;53.652;8.516;2023-08-08T05:35:27;100876.35;;;15.94;100.00
37878;BME280;23715;53.652;8.516;2023-08-08T05:40:27;100868.27;;;16.39;100.00
37878;BME280;23715;53.652;8.516;2023-08-08T05:45:27;100865.89;;;16.28;100.00
37878;BME280;23715;53.652;8.516;2023-08-08T05:50:27;100857.05;;;16.58;100.00
37878;BME280;23715;53.652;8.516;2023-08-08T05:55:28;100842.12;;;16.42;100.00
37878;BME280;23715;53.652;8.516;2023-08-08T06:00:29;100849.23;;;16.59;100.00
37878;BME280;23715;53.652;8.516;2023-08-08T06:05:31;100840.77;;;16.46;100.00
37878;BME280;23715;53.652;8.516;2023-08-08T06:10:31;100841.78;;;16.53;100.00
37878;BME280;23715;53.652;8.516;2023-08-08T06:15:34;100844.84;;;16.54;100.00
37878;BME280;23715;53.652;8.516;2023-08-08T06:20:35;100844.66;;;16.68;100.00
37878;BME280;23715;53.652;8.516;2023-08-08T06:25:35;100847.73;;;16.49;100.00
37878;BME280;23715;53.652;8.516;2023-08-08T06:30:35;100860.73;;;17.03;100.00
37878;BME280;23715;53.652;8.516;2023-08-08T06:35:35;100852.95;;;16.91;100.00
37878;BME280;23715;53.652;8.516;2023-08-08T06:40:36;100859.13;;;17.29;100.00
37878;BME280;23715;53.652;8.516;2023-08-08T06:45:37;100867.20;;;17.45;100.00
37878;BME280;23715;53.652;8.516;2023-08-08T06:50:38;100884.02;;;17.49;100.00
37878;BME280;23715;53.652;8.516;2023-08-08T06:55:38;100883.41;;;17.34;100.00
37878;BME280;23715;53.652;8.516;2023-08-08T07:00:38;100887.56;;;16.97;100.00
37878;BME280;23715;53.652;8.516;2023-08-08T07:05:44;100884.52;;;16.88;100.00
37878;BME280;23715;53.652;8.516;2023-08-08T07:10:40;100884.87;;;16.48;100.00
37878;BME280;23715;53.652;8.516;2023-08-08T07:15:41;100895.56;;;16.83;100.00
37878;BME280;23715;53.652;8.516;2023-08-08T07:20:42;100876.38;;;16.76;100.00
37878;BME280;23715;53.652;8.516;2023-08-08T07:25:43;100879.78;;;16.53;100.00
37878;BME280;23715;53.652;8.516;2023-08-08T07:30:43;100878.59;;;16.52;100.00
37878;BME280;23715;53.652;8.516;2023-08-08T07:35:44;100873.96;;;15.91;100.00
37878;BME280;23715;53.652;8.516;2023-08-08T07:40:44;100898.37;;;15.99;100.00
37878;BME280;23715;53.652;8.516;2023-08-08T07:45:45;100894.87;;;16.23;100.00
37878;BME280;23715;53.652;8.516;2023-08-08T07:50:45;100876.94;;;15.71;100.00
37878;BME280;23715;53.652;8.516;2023-08-08T07:55:45;100873.06;;;15.74;100.00
37878;BME280;23715;53.652;8.516;2023-08-08T08:00:47;100868.85;;;15.84;100.00
37878;BME280;23715;53.652;8.516;2023-08-08T08:05:50;100865.89;;;16.28;100.00
37878;BME280;23715;53.652;8.516;2023-08-08T08:10:51;100859.77;;;16.46;100.00
37878;BME280;23715;53.652;8.516;2023-08-08T08:15:51;100849.25;;;16.51;100.00
37878;BME280;23715;53.652;8.516;2023-08-08T08:20:51;100842.48;;;16.39;100.00
37878;BME280;23715;53.652;8.516;2023-08-08T08:25:51;100842.44;;;16.84;100.00
37878;BME280;23715;53.652;8.516;2023-08-08T08:30:53;100834.59;;;16.97;100.00
37878;BME280;23715;53.652;8.516;2023-08-08T08:35:54;100842.09;;;16.71;100.00
37878;BME280;23715;53.652;8.516;2023-08-08T08:40:56;100834.44;;;16.95;100.00
37878;BME280;23715;53.652;8.516;2023-08-08T08:45:59;100829.18;;;16.93;100.00
37878;BME280;23715;53.652;8.516;2023-08-08T08:51:00;100822.63;;;17.23;100.00
37878;BME280;23715;53.652;8.516;2023-08-08T08:56:02;100832.14;;;17.23;100.00
37878;BME280;23715;53.652;8.516;2023-08-08T09:01:02;100837.35;;;16.77;100.00
37878;BME280;23715;53.652;8.516;2023-08-08T09:06:03;100843.59;;;17.02;100.00
37878;BME280;23715;53.652;8.516;2023-08-08T09:11:04;100831.58;;;16.92;100.00
37878;BME280;23715;53.652;8.516;2023-08-08T09:16:09;100826.53;;;16.52;100.00
37878;BME280;23715;53.652;8.516;2023-08-08T09:21:11;100828.20;;;16.53;100.00
37878;BME280;23715;53.652;8.516;2023-08-08T09:26:14;100824.78;;;16.76;100.00
37878;BME280;23715;53.652;8.516;2023-08-08T09:31:16;100888.29;;;15.32;100.00
37878;BME280;23715;53.652;8.516;2023-08-08T09:36:17;100929.02;;;14.52;100.00
37878;BME280;23715;53.652;8.516;2023-08-08T09:41:25;100970.94;;;14.66;100.00
37878;BME280;23715;53.652;8.516;2023-08-08T09:46:21;100974.58;;;14.11;100.00
37878;BME280;23715;53.652;8.516;2023-08-08T09:51:22;101001.08;;;13.94;100.00
37878;BME280;23715;53.652;8.516;2023-08-08T09:56:26;101040.87;;;14.43;100.00
37878;BME280;23715;53.652;8.516;2023-08-08T10:01:28;101051.58;;;14.31;100.00
37878;BME280;23715;53.652;8.516;2023-08-08T10:06:29;101074.52;;;14.86;100.00
37878;BME280;23715;53.652;8.516;2023-08-08T10:11:31;101105.92;;;15.15;100.00
37878;BME280;23715;53.652;8.516;2023-08-08T10:16:32;101135.98;;;14.48;100.00
37878;BME280;23715;53.652;8.516;2023-08-08T10:21:41;101123.58;;;15.01;100.00
37878;BME280;23715;53.652;8.516;2023-08-08T10:26:58;101162.27;;;16.13;100.00
37878;BME280;23715;53.652;8.516;2023-08-08T10:32:02;101177.14;;;16.70;100.00
37878;BME280;23715;53.652;8.516;2023-08-08T10:37:05;101151.40;;;16.09;100.00
37878;BME280;23715;53.652;8.516;2023-08-08T10:42:05;101085.80;;;15.84;100.00
37878;BME280;23715;53.652;8.516;2023-08-08T10:47:05;101030.68;;;16.13;100.00
37878;BME280;23715;53.652;8.516;2023-08-08T10:52:06;100976.67;;;16.69;100.00
37878;BME280;23715;53.652;8.516;2023-08-08T10:57:15;100925.55;;;17.30;100.00
37878;BME280;23715;53.652;8.516;2023-08-08T11:02:10;100897.95;;;16.86;100.00
37878;BME280;23715;53.652;8.516;2023-08-08T11:07:11;100856.39;;;16.52;100.00
37878;BME280;23715;53.652;8.516;2023-08-08T11:12:19;100847.54;;;16.50;100.00
37878;BME280;23715;53.652;8.516;2023-08-08T11:17:17;100845.48;;;17.02;100.00
37878;BME280;23715;53.652;8.516;2023-08-08T11:22:21;100849.58;;;16.85;100.00
37878;BME280;23715;53.652;8.516;2023-08-08T11:27:24;100845.98;;;16.76;100.00
37878;BME280;23715;53.652;8.516;2023-08-08T11:32:26;100830.88;;;16.78;100.00
37878;BME280;23715;53.652;8.516;2023-08-08T11:37:27;100811.97;;;17.53;100.00
37878;BME280;23715;53.652;8.516;2023-08-08T11:42:28;100815.45;;;17.34;100.00
37878;BME280;23715;53.652;8.516;2023-08-08T11:47:30;100820.64;;;17.80;100.00
37878;BME280;23715;53.652;8.516;2023-08-08T11:52:31;100851.75;;;17.02;100.00
37878;BME280;23715;53.652;8.516;2023-08-08T11:57:33;100939.38;;;14.75;100.00
37878;BME280;23715;53.652;8.516;2023-08-08T12:02:34;101016.00;;;15.33;100.00
37878;BME280;23715;53.652;8.516;2023-08-08T12:07:40;101110.00;;;15.77;100.00
37878;BME280;23715;53.652;8.516;2023-08-08T12:12:37;101159.11;;;16.22;100.00
37878;BME280;23715;53.652;8.516;2023-08-08T12:17:37;101119.00;;;16.08;100.00
37878;BME280;23715;53.652;8.516;2023-08-08T12:22:38;101028.52;;;15.60;100.00
37878;BME280;23715;53.652;8.516;2023-08-08T12:27:43;100979.82;;;16.19;100.00
37878;BME280;23715;53.652;8.516;2023-08-08T12:32:47;100943.89;;;17.32;100.00
37878;BME280;23715;53.652;8.516;2023-08-08T12:37:48;100905.91;;;17.99;100.00
37878;BME280;23715;53.652;8.516;2023-08-08T12:42:48;100883.93;;;17.26;100.00
37878;BME280;23715;53.652;8.516;2023-08-08T12:47:48;100915.41;;;16.34;100.00
37878;BME280;23715;53.652;8.516;2023-08-08T12:52:48;100926.73;;;15.70;100.00
37878;BME280;23715;53.652;8.516;2023-08-08T12:57:49;100979.02;;;15.24;100.00
37878;BME280;23715;53.652;8.516;2023-08-08T13:02:49;101051.56;;;14.94;100.00
37878;BME280;23715;53.652;8.516;2023-08-08T13:07:49;101160.05;;;15.83;100.00
37878;BME280;23715;53.652;8.516;2023-08-08T13:12:49;101229.33;;;15.45;100.00
37878;BME280;23715;53.652;8.516;2023-08-08T13:22:59;101264.67;;;15.39;100.00
37878;BME280;23715;53.652;8.516;2023-08-08T13:27:59;101254.86;;;15.25;100.00
37878;BME280;23715;53.652;8.516;2023-08-08T13:33:00;101214.10;;;15.30;100.00
37878;BME280;23715;53.652;8.516;2023-08-08T13:38:01;101223.20;;;14.93;100.00
37878;BME280;23715;53.652;8.516;2023-08-08T13:43:01;101217.98;;;15.14;100.00
37878;BME280;23715;53.652;8.516;2023-08-08T13:48:01;101208.95;;;15.59;100.00
37878;BME280;23715;53.652;8.516;2023-08-08T13:53:02;101161.23;;;15.66;100.00
37878;BME280;23715;53.652;8.516;2023-08-08T13:58:03;101122.09;;;14.89;100.00
37878;BME280;23715;53.652;8.516;2023-08-08T14:03:03;101118.96;;;15.15;100.00
37878;BME280;23715;53.652;8.516;2023-08-08T14:08:05;101112.58;;;15.20;100.00
37878;BME280;23715;53.652;8.516;2023-08-08T14:13:07;101122.87;;;15.57;100.00
37878;BME280;23715;53.652;8.516;2023-08-08T14:18:09;101137.67;;;15.05;100.00
37878;BME280;23715;53.652;8.516;2023-08-08T14:23:10;101139.42;;;15.14;100.00
37878;BME280;23715;53.652;8.516;2023-08-08T14:28:10;101151.28;;;14.53;100.00
37878;BME280;23715;53.652;8.516;2023-08-08T14:33:12;101097.75;;;14.33;100.00
37878;BME280;23715;53.652;8.516;2023-08-08T14:38:14;101126.41;;;14.81;100.00
37878;BME280;23715;53.652;8.516;2023-08-08T14:43:15;101199.61;;;14.62;100.00
37878;BME280;23715;53.652;8.516;2023-08-08T14:48:15;101258.83;;;14.75;100.00
37878;BME280;23715;53.652;8.516;2023-08-08T14:53:15;101309.34;;;14.80;100.00
37878;BME280;23715;53.652;8.516;2023-08-08T14:58:16;101366.28;;;14.74;100.00
37878;BME280;23715;53.652;8.516;2023-08-08T15:03:16;101446.92;;;15.04;100.00
37878;BME280;23715;53.652;8.516;2023-08-08T15:08:18;101499.42;;;15.27;100.00
37878;BME280;23715;53.652;8.516;2023-08-08T15:13:20;101515.36;;;15.06;100.00
37878;BME280;23715;53.652;8.516;2023-08-08T15:18:20;101469.23;;;15.35;100.00
37878;BME280;23715;53.652;8.516;2023-08-08T15:23:21;101418.06;;;15.60;100.00
37878;BME280;23715;53.652;8.516;2023-08-08T15:28:21;101363.59;;;16.17;100.00
37878;BME280;23715;53.652;8.516;2023-08-08T15:33:22;101252.91;;;16.25;100.00
37878;BME280;23715;53.652;8.516;2023-08-08T15:38:23;101140.84;;;16.02;100.00
37878;BME280;23715;53.652;8.516;2023-08-08T15:43:23;101126.77;;;15.36;100.00
37878;BME280;23715;53.652;8.516;2023-08-08T15:48:23;101175.54;;;15.36;100.00
37878;BME280;23715;53.652;8.516;2023-08-08T15:53:23;101188.16;;;15.46;100.00
37878;BME280;23715;53.652;8.516;2023-08-08T15:58:28;101183.73;;;16.03;100.00
37878;BME280;23715;53.652;8.516;2023-08-08T16:03:29;101112.56;;;15.78;100.00
37878;BME280;23715;53.652;8.516;2023-08-08T16:08:31;101072.54;;;16.57;100.00
37878;BME280;23715;53.652;8.516;2023-08-08T16:13:31;101036.05;;;16.52;100.00
37878;BME280;23715;53.652;8.516;2023-08-08T16:18:31;101002.27;;;16.50;100.00
37878;BME280;23715;53.652;8.516;2023-08-08T16:23:33;100995.94;;;16.17;100.00
37878;BME280;23715;53.652;8.516;2023-08-08T16:28:34;100994.80;;;16.36;100.00
37878;BME280;23715;53.652;8.516;2023-08-08T16:33:35;100999.27;;;16.07;100.00
37878;BME280;23715;53.652;8.516;2023-08-08T16:38:35;101015.59;;;16.11;100.00
37878;BME280;23715;53.652;8.516;2023-08-08T16:43:37;101015.52;;;16.45;100.00
37878;BME280;23715;53.652;8.516;2023-08-08T16:48:39;100999.27;;;16.78;100.00
37878;BME280;23715;53.652;8.516;2023-08-08T16:53:39;100992.64;;;16.72;100.00
37878;BME280;23715;53.652;8.516;2023-08-08T16:58:39;100979.39;;;16.49;100.00
37878;BME280;23715;53.652;8.516;2023-08-08T17:03:41;100980.94;;;16.68;100.00
37878;BME280;23715;53.652;8.516;2023-08-08T17:08:41;100964.33;;;17.04;100.00
37878;BME280;23715;53.652;8.516;2023-08-08T17:13:42;100953.64;;;16.98;100.00
37878;BME280;23715;53.652;8.516;2023-08-08T17:18:41;100960.91;;;16.81;100.00
37878;BME280;23715;53.652;8.516;2023-08-08T17:23:41;100962.27;;;16.81;100.00
37878;BME280;23715;53.652;8.516;2023-08-08T17:28:42;100978.88;;;16.62;100.00
37878;BME280;23715;53.652;8.516;2023-08-08T17:33:42;100968.40;;;16.91;100.00
37878;BME280;23715;53.652;8.516;2023-08-08T17:38:43;100968.55;;;16.94;100.00
37878;BME280;23715;53.652;8.516;2023-08-08T17:43:43;100984.34;;;17.07;100.00
37878;BME280;23715;53.652;8.516;2023-08-08T17:48:43;100992.96;;;16.69;100.00
37878;BME280;23715;53.652;8.516;2023-08-08T17:53:43;101004.02;;;16.72;100.00
37878;BME280;23715;53.652;8.516;2023-08-08T17:58:43;100989.89;;;16.39;100.00
37878;BME280;23715;53.652;8.516;2023-08-08T18:03:43;100992.13;;;16.52;100.00
37878;BME280;23715;53.652;8.516;2023-08-08T18:08:43;100995.31;;;16.39;100.00
37878;BME280;23715;53.652;8.516;2023-08-08T18:13:43;101000.11;;;16.66;100.00
37878;BME280;23715;53.652;8.516;2023-08-08T18:18:43;100991.25;;;16.52;100.00
37878;BME280;23715;53.652;8.516;2023-08-08T18:23:46;100999.55;;;16.38;100.00
37878;BME280;23715;53.652;8.516;2023-08-08T18:28:48;101012.48;;;16.52;100.00
37878;BME280;23715;53.652;8.516;2023-08-08T18:33:49;101013.81;;;16.48;100.00
37878;BME280;23715;53.652;8.516;2023-08-08T18:38:54;101021.89;;;16.24;100.00
37878;BME280;23715;53.652;8.516;2023-08-08T18:43:57;101031.29;;;16.46;100.00
37878;BME280;23715;53.652;8.516;2023-08-08T18:48:59;101028.34;;;16.18;100.00
37878;BME280;23715;53.652;8.516;2023-08-08T18:53:59;101057.23;;;16.40;100.00
37878;BME280;23715;53.652;8.516;2023-08-08T18:59:00;101060.45;;;15.45;100.00
37878;BME280;23715;53.652;8.516;2023-08-08T19:04:00;101063.78;;;15.65;100.00
37878;BME280;23715;53.652;8.516;2023-08-08T19:09:04;101067.45;;;15.73;100.00
37878;BME280;23715;53.652;8.516;2023-08-08T19:14:06;101066.83;;;15.88;100.00
37878;BME280;23715;53.652;8.516;2023-08-08T19:19:07;101058.50;;;15.81;100.00
37878;BME280;23715;53.652;8.516;2023-08-08T19:24:07;101067.13;;;15.76;100.00
37878;BME280;23715;53.652;8.516;2023-08-08T19:29:08;101046.83;;;15.62;100.00
37878;BME280;23715;53.652;8.516;2023-08-08T19:34:08;101051.41;;;15.84;100.00
37878;BME280;23715;53.652;8.516;2023-08-08T19:39:08;101041.55;;;16.22;100.00
37878;BME280;23715;53.652;8.516;2023-08-08T19:44:08;101042.60;;;16.29;100.00
37878;BME280;23715;53.652;8.516;2023-08-08T19:49:08;101041.38;;;16.15;100.00
37878;BME280;23715;53.652;8.516;2023-08-08T19:54:08;101047.52;;;15.87;100.00
37878;BME280;23715;53.652;8.516;2023-08-08T19:59:09;101056.73;;;15.98;100.00
37878;BME280;23715;53.652;8.516;2023-08-08T20:04:09;101086.70;;;15.92;100.00
37878;BME280;23715;53.652;8.516;2023-08-08T20:09:10;101056.34;;;15.67;100.00
37878;BME280;23715;53.652;8.516;2023-08-08T20:14:10;101080.06;;;15.87;100.00
37878;BME280;23715;53.652;8.516;2023-08-08T20:19:10;101086.89;;;15.99;100.00
37878;BME280;23715;53.652;8.516;2023-08-08T20:24:10;101074.80;;;16.24;100.00
37878;BME280;23715;53.652;8.516;2023-08-08T20:29:12;101061.58;;;16.20;100.00
37878;BME280;23715;53.652;8.516;2023-08-08T20:34:12;101050.08;;;16.35;100.00
37878;BME280;23715;53.652;8.516;2023-08-08T20:39:14;101043.28;;;16.27;100.00
37878;BME280;23715;53.652;8.516;2023-08-08T20:44:14;101046.05;;;16.43;100.00
37878;BME280;23715;53.652;8.516;2023-08-08T20:49:14;101056.16;;;16.20;100.00
37878;BME280;23715;53.652;8.516;2023-08-08T20:54:15;101043.97;;;16.33;100.00
37878;BME280;23715;53.652;8.516;2023-08-08T20:59:15;101037.54;;;16.34;100.00
37878;BME280;23715;53.652;8.516;2023-08-08T21:04:15;101032.80;;;16.36;100.00
37878;BME280;23715;53.652;8.516;2023-08-08T21:09:16;101034.45;;;16.25;100.00
37878;BME280;23715;53.652;8.516;2023-08-08T21:14:16;101026.90;;;16.53;100.00
37878;BME280;23715;53.652;8.516;2023-08-08T21:19:25;101021.73;;;16.29;100.00
37878;BME280;23715;53.652;8.516;2023-08-08T21:24:49;101034.89;;;16.75;100.00
37878;BME280;23715;53.652;8.516;2023-08-08T21:34:50;101026.30;;;16.20;100.00
37878;BME280;23715;53.652;8.516;2023-08-08T21:39:51;101020.90;;;16.33;100.00
37878;BME280;23715;53.652;8.516;2023-08-08T21:44:51;101032.42;;;16.27;100.00
37878;BME280;23715;53.652;8.516;2023-08-08T21:49:51;101033.63;;;16.32;100.00
37878;BME280;23715;53.652;8.516;2023-08-08T21:54:55;101023.92;;;16.26;100.00
37878;BME280;23715;53.652;8.516;2023-08-08T21:59:57;101009.37;;;16.35;100.00
37878;BME280;23715;53.652;8.516;2023-08-08T22:05:08;101009.34;;;16.18;100.00
37878;BME280;23715;53.652;8.516;2023-08-08T22:10:13;101014.45;;;15.87;100.00
37878;BME280;23715;53.652;8.516;2023-08-08T22:15:11;101013.91;;;15.79;100.00
37878;BME280;23715;53.652;8.516;2023-08-08T22:20:11;101014.98;;;15.87;100.00
37878;BME280;23715;53.652;8.516;2023-08-08T22:25:11;101014.41;;;15.75;100.00
37878;BME280;23715;53.652;8.516;2023-08-08T22:30:12;101010.69;;;15.80;100.00
37878;BME280;23715;53.652;8.516;2023-08-08T22:35:12;101012.11;;;15.62;100.00
37878;BME280;23715;53.652;8.516;2023-08-08T22:40:13;101011.95;;;15.90;100.00
37878;BME280;23715;53.652;8.516;2023-08-08T22:45:14;101003.30;;;15.64;100.00
37878;BME280;23715;53.652;8.516;2023-08-08T22:50:14;101007.81;;;15.77;100.00
37878;BME280;23715;53.652;8.516;2023-08-08T22:55:14;101002.38;;;15.77;100.00
37878;BME280;23715;53.652;8.516;2023-08-08T23:00:15;101003.41;;;15.76;100.00
37878;BME280;23715;53.652;8.516;2023-08-08T23:05:15;101006.19;;;15.67;100.00
37878;BME280;23715;53.652;8.516;2023-08-08T23:10:15;101004.81;;;15.89;100.00
37878;BME280;23715;53.652;8.516;2023-08-08T23:15:16;101005.17;;;15.90;100.00
37878;BME280;23715;53.652;8.516;2023-08-08T23:20:16;101018.69;;;15.86;100.00
37878;BME280;23715;53.652;8.516;2023-08-08T23:25:16;101021.04;;;15.76;100.00
37878;BME280;23715;53.652;8.516;2023-08-08T23:30:18;101021.97;;;15.67;100.00
37878;BME280;23715;53.652;8.516;2023-08-08T23:35:19;101015.26;;;15.75;100.00
37878;BME280;23715;53.652;8.516;2023-08-08T23:40:19;101008.63;;;15.74;100.00
37878;BME280;23715;53.652;8.516;2023-08-08T23:45:20;101024.95;;;15.56;100.00
37878;BME280;23715;53.652;8.516;2023-08-08T23:50:20;101022.11;;;15.61;100.00
37878;BME280;23715;53.652;8.516;2023-08-08T23:55:20;101033.77;;;15.58;100.00
